Time;durP1;ratioP1;P1;durP2;ratioP2;P2;SDS_P1;SDS_P2;PMS_P1;PMS_P2;Temp;Humidity;BMP_temperature;BMP_pressure;BME280_temperature;BME280_humidity;BME280_pressure;Samples;Min_cycle;Max_cycle;Signal;HPM_P1;HPM_P2
2023/06/25 00:01:56;;;;;;;17.95;10.80;;;;;;;15.20;68.85;99818.53;5095761;28;20181;-64
2023/06/25 00:04:22;;;;;;;18.00;11.45;;;;;;;14.97;69.09;99780.41;5094561;28;20506;-60
2023/06/25 00:06:48;;;;;;;15.13;11.07;;;;;;;15.19;69.26;99819.53;5095504;28;20105;-59
2023/06/25 00:09:13;;;;;;;18.50;12.13;;;;;;;15.13;68.97;99809.38;5095709;28;20028;-60
2023/06/25 00:11:39;;;;;;;17.35;11.25;;;;;;;15.13;68.88;99819.31;5094480;28;20354;-66
2023/06/25 00:14:05;;;;;;;19.75;11.10;;;;;;;15.13;68.75;99816.59;5092069;28;20020;-60
2023/06/25 00:16:30;;;;;;;16.58;9.90;;;;;;;15.15;68.72;99818.16;5094584;28;20031;-59
2023/06/25 00:18:56;;;;;;;14.57;10.20;;;;;;;15.16;68.62;99821.69;5094886;28;20054;-61
2023/06/25 00:21:22;;;;;;;15.43;9.70;;;;;;;15.17;68.40;99815.28;5092865;28;20036;-61
2023/06/25 00:23:48;;;;;;;15.02;10.23;;;;;;;15.15;68.21;99820.00;5094082;28;20388;-57
2023/06/25 00:26:13;;;;;;;15.52;10.43;;;;;;;15.12;68.50;99814.91;5094031;28;20085;-58
2023/06/25 00:28:39;;;;;;;15.68;10.77;;;;;;;15.10;68.49;99812.38;5083024;28;20035;-60
2023/06/25 00:31:05;;;;;;;14.70;10.65;;;;;;;15.10;68.77;99825.00;5074340;28;20036;-60
2023/06/25 00:33:32;;;;;;;17.95;11.82;;;;;;;15.06;68.82;99817.22;5073529;28;20304;-61
2023/06/25 00:35:57;;;;;;;14.77;10.55;;;;;;;15.07;69.05;99821.63;5074056;28;20028;-62
2023/06/25 00:38:23;;;;;;;12.13;10.60;;;;;;;14.85;68.95;99782.50;5074071;28;20044;-61
2023/06/25 00:40:50;;;;;;;15.90;11.30;;;;;;;15.04;69.26;99823.75;5073676;28;20052;-62
2023/06/25 00:43:16;;;;;;;18.92;11.88;;;;;;;15.02;69.02;99818.53;5074278;28;20024;-61
2023/06/25 00:45:44;;;;;;;13.35;10.60;;;;;;;15.07;69.03;99821.63;5072761;28;20123;-61
2023/06/25 00:48:10;;;;;;;19.58;11.32;;;;;;;15.04;68.61;99827.31;5073962;28;20115;-62
2023/06/25 00:50:36;;;;;;;15.95;11.07;;;;;;;15.02;68.90;99817.69;5073772;28;20138;-60
2023/06/25 00:53:02;;;;;;;14.05;11.00;;;;;;;15.01;68.80;99808.75;5072415;28;20043;-60
2023/06/25 00:55:28;;;;;;;16.40;11.15;;;;;;;15.03;68.68;99812.16;5073534;28;20031;-62
2023/06/25 00:57:56;;;;;;;13.88;10.85;;;;;;;15.03;68.56;99812.16;5074608;28;20066;-57
2023/06/25 01:00:25;;;;;;;14.82;11.48;;;;;;;15.02;68.77;99815.84;5073103;28;20032;-62
2023/06/25 01:03:03;;;;;;;18.63;11.18;;;;;;;15.07;68.80;99818.06;5072077;28;20491;-61
2023/06/25 01:05:49;;;;;;;13.80;11.38;;;;;;;15.11;68.76;99813.22;5072584;28;20512;-59
2023/06/25 01:08:17;;;;;;;17.30;12.23;;;;;;;14.82;68.70;99780.06;5072415;28;20028;-61
2023/06/25 01:10:43;;;;;;;15.82;11.40;;;;;;;14.98;68.79;99814.47;5071893;28;20466;-67
2023/06/25 01:13:08;;;;;;;16.23;11.80;;;;;;;14.97;68.92;99810.06;5071760;28;20036;-61
2023/06/25 01:15:34;;;;;;;18.88;12.50;;;;;;;14.89;68.35;99799.19;5073501;28;20033;-60
2023/06/25 01:18:00;;;;;;;20.90;12.07;;;;;;;14.83;68.41;99783.63;5055526;28;20391;-62
2023/06/25 01:20:29;;;;;;;14.57;11.57;;;;;;;15.08;68.07;99827.88;5029581;28;1275607;-60
2023/06/25 01:22:55;;;;;;;17.63;13.23;;;;;;;15.06;67.69;99817.22;5072679;28;20420;-61
2023/06/25 01:25:21;;;;;;;18.65;13.68;;;;;;;15.12;67.79;99820.31;5073095;28;20040;-62
2023/06/25 01:27:47;;;;;;;19.67;12.48;;;;;;;14.95;67.80;99787.81;5073787;28;20028;-62
2023/06/25 01:30:14;;;;;;;24.83;11.45;;;;;;;15.15;67.69;99817.31;5073761;28;20469;-61
2023/06/25 01:32:41;;;;;;;14.23;12.18;;;;;;;15.24;67.47;99823.63;5073888;28;20035;-63
2023/06/25 01:35:08;;;;;;;18.00;13.15;;;;;;;15.24;67.63;99829.88;5073766;28;20055;-59
2023/06/25 01:37:34;;;;;;;16.95;12.45;;;;;;;15.28;67.66;99830.41;5073984;28;20068;-57
2023/06/25 01:40:00;;;;;;;16.20;10.30;;;;;;;15.31;66.80;99830.94;5073040;28;20024;-60
2023/06/25 01:42:25;;;;;;;12.45;9.65;;;;;;;15.28;66.80;99820.47;5073240;28;20032;-58
2023/06/25 01:44:51;;;;;;;12.45;10.07;;;;;;;15.47;66.69;99837.50;5073731;28;20025;-59
2023/06/25 01:47:16;;;;;;;14.18;10.35;;;;;;;15.46;66.43;99828.53;5073056;28;20055;-60
2023/06/25 01:49:42;;;;;;;13.70;9.63;;;;;;;15.51;66.32;99833.47;5072427;28;20078;-59
2023/06/25 01:52:08;;;;;;;13.38;9.63;;;;;;;15.60;66.02;99840.63;5073281;28;20067;-59
2023/06/25 01:54:34;;;;;;;12.88;9.40;;;;;;;15.58;66.10;99839.13;5072995;28;20075;-60
2023/06/25 01:57:00;;;;;;;13.77;9.38;;;;;;;15.68;65.81;99847.13;5072516;28;20028;-60
2023/06/25 01:59:27;;;;;;;12.80;8.60;;;;;;;15.53;65.09;99804.50;5072917;28;20029;-60
2023/06/25 02:01:53;;;;;;;11.15;8.90;;;;;;;15.81;65.81;99844.84;5072143;28;20032;-60
2023/06/25 02:04:19;;;;;;;13.20;9.43;;;;;;;15.81;65.78;99836.75;5072441;28;20028;-60
2023/06/25 02:06:45;;;;;;;10.98;9.10;;;;;;;15.89;64.90;99850.31;5073119;28;20058;-58
2023/06/25 02:09:10;;;;;;;13.63;9.07;;;;;;;15.96;64.61;99844.31;5072985;28;20033;-59
2023/06/25 02:11:36;;;;;;;12.77;8.80;;;;;;;16.04;64.58;99847.06;5073132;28;20067;-61
2023/06/25 02:14:03;;;;;;;13.57;9.00;;;;;;;16.07;64.34;99833.22;5072560;28;20119;-60
2023/06/25 02:16:29;;;;;;;11.45;8.95;;;;;;;16.02;63.80;99816.66;5072874;28;20024;-61
2023/06/25 02:18:55;;;;;;;11.05;8.05;;;;;;;16.30;63.10;99843.50;5073740;28;20174;-61
2023/06/25 02:21:20;;;;;;;8.88;7.85;;;;;;;16.49;62.34;99840.53;5072781;28;20077;-60
2023/06/25 02:23:46;;;;;;;14.75;8.48;;;;;;;16.73;62.13;99843.50;5072951;28;20029;-60
2023/06/25 02:26:11;;;;;;;12.80;8.25;;;;;;;16.96;61.10;99846.44;5072332;28;20075;-61
2023/06/25 02:28:37;;;;;;;10.93;8.10;;;;;;;17.23;60.14;99841.78;5072543;28;20082;-61
2023/06/25 02:31:02;;;;;;;11.68;8.63;;;;;;;17.48;59.24;99850.81;5071470;28;20032;-60
2023/06/25 02:33:28;;;;;;;13.90;9.10;;;;;;;17.59;58.64;99821.69;5072517;28;20505;-59
2023/06/25 02:35:54;;;;;;;12.15;8.70;;;;;;;17.99;57.42;99841.63;5072808;28;20474;-58
2023/06/25 02:38:19;;;;;;;14.70;9.63;;;;;;;18.42;56.04;99851.34;5072364;28;20036;-59
2023/06/25 02:40:45;;;;;;;13.60;9.30;;;;;;;18.71;55.01;99822.78;5078611;28;20024;-60
2023/06/25 02:43:10;;;;;;;17.65;9.77;;;;;;;19.26;53.64;99842.63;5093078;28;20043;-59
2023/06/25 02:45:36;;;;;;;14.80;9.20;;;;;;;19.61;52.82;99844.91;5091495;28;20111;-60
2023/06/25 02:48:01;;;;;;;16.25;10.70;;;;;;;19.84;51.91;99849.47;5092237;28;20077;-59
2023/06/25 02:50:27;;;;;;;12.75;10.32;;;;;;;19.84;51.28;99817.75;5092052;28;20353;-59
2023/06/25 02:52:53;;;;;;;18.13;10.82;;;;;;;20.17;50.82;99847.31;5092920;28;20025;-60
2023/06/25 02:55:18;;;;;;;15.00;10.65;;;;;;;20.32;50.83;99851.94;5090611;28;20027;-67
2023/06/25 02:57:44;;;;;;;21.98;10.52;;;;;;;20.56;50.26;99842.63;5092884;28;20039;-59
2023/06/25 03:00:10;;;;;;;14.55;9.88;;;;;;;21.07;48.83;99849.97;5089790;28;20457;-61
2023/06/25 03:02:35;;;;;;;11.30;9.82;;;;;;;21.52;47.97;99843.50;5091577;28;20477;-61
2023/06/25 03:05:01;;;;;;;12.40;9.60;;;;;;;21.88;46.12;99823.50;5091880;28;20032;-61
2023/06/25 03:07:27;;;;;;;11.32;9.10;;;;;;;22.52;44.88;99850.75;5092058;28;20032;-61
2023/06/25 03:09:52;;;;;;;10.25;8.70;;;;;;;22.80;44.07;99853.41;5090786;28;20024;-58
2023/06/25 03:12:17;;;;;;;12.00;8.98;;;;;;;23.06;43.87;99857.28;5093153;28;20420;-60
2023/06/25 03:14:43;;;;;;;9.48;8.50;;;;;;;23.43;42.52;99853.41;5092455;28;20039;-61
2023/06/25 03:17:08;;;;;;;8.95;7.47;;;;;;;23.79;41.28;99857.63;5092096;28;20128;-63
2023/06/25 03:19:34;;;;;;;9.88;7.57;;;;;;;24.14;40.60;99862.06;5092216;28;20044;-60
2023/06/25 03:22:00;;;;;;;9.45;7.43;;;;;;;24.38;39.76;99857.81;5092674;28;20074;-60
2023/06/25 03:24:25;;;;;;;10.52;7.38;;;;;;;24.75;39.25;99855.41;5079526;28;20107;-59
2023/06/25 03:26:51;;;;;;;9.95;8.15;;;;;;;25.13;38.25;99844.69;5071329;28;20093;-61
2023/06/25 03:29:17;;;;;;;9.80;7.18;;;;;;;25.42;37.65;99842.41;5072482;28;20149;-61
2023/06/25 03:31:43;;;;;;;9.30;7.78;;;;;;;25.73;36.95;99851.66;5054625;28;20416;-60
2023/06/25 03:34:09;;;;;;;8.15;7.35;;;;;;;25.83;36.36;99852.03;5071955;28;20032;-60
2023/06/25 03:36:34;;;;;;;7.70;6.68;;;;;;;26.15;35.92;99854.66;5071731;28;20033;-61
2023/06/25 03:39:00;;;;;;;7.32;6.57;;;;;;;26.44;35.11;99844.03;5071842;28;20379;-62
2023/06/25 03:41:26;;;;;;;8.40;7.20;;;;;;;26.71;34.58;99851.97;5071947;28;20033;-60
2023/06/25 03:43:51;;;;;;;8.27;7.22;;;;;;;26.99;34.21;99849.75;5071577;28;20060;-65
2023/06/25 03:46:17;;;;;;;8.23;6.68;;;;;;;27.30;33.98;99859.66;5054585;28;20028;-60
2023/06/25 03:48:43;;;;;;;7.85;6.88;;;;;;;27.54;33.52;99859.78;5071559;28;20347;-60
2023/06/25 03:51:09;;;;;;;7.60;6.70;;;;;;;27.77;32.81;99864.47;5071220;28;20443;-60
2023/06/25 03:53:37;;;;;;;6.95;6.35;;;;;;;27.85;32.42;99857.78;5071783;28;20036;-62
2023/06/25 03:56:03;;;;;;;6.82;6.13;;;;;;;27.90;31.95;99841.38;5070589;28;20040;-62
2023/06/25 03:58:29;;;;;;;6.97;6.30;;;;;;;28.20;31.00;99856.97;5071633;28;20056;-61
2023/06/25 04:00:54;;;;;;;8.32;5.95;;;;;;;28.53;30.58;99838.13;5071777;28;20107;-59
2023/06/25 04:03:20;;;;;;;8.15;5.47;;;;;;;29.11;29.72;99870.44;5071569;28;20473;-59
2023/06/25 04:05:47;;;;;;;6.32;5.63;;;;;;;29.57;28.99;99860.28;5071186;28;20078;-60
2023/06/25 04:08:12;;;;;;;8.38;6.28;;;;;;;30.11;28.05;99861.72;5072532;28;20047;-60
2023/06/25 04:10:39;;;;;;;6.38;5.78;;;;;;;30.56;27.50;99856.25;5070783;28;20025;-61
2023/06/25 04:13:04;;;;;;;7.95;6.00;;;;;;;31.02;26.48;99858.78;5075447;28;20393;-60
2023/06/25 04:15:30;;;;;;;7.20;5.55;;;;;;;31.38;25.87;99859.16;5075179;28;20028;-60
2023/06/25 04:17:55;;;;;;;6.55;5.28;;;;;;;31.68;25.38;99863.28;5074636;28;20041;-60
2023/06/25 04:20:23;;;;;;;5.82;5.22;;;;;;;31.83;25.10;99861.78;5075346;28;20071;-60
2023/06/25 04:22:48;;;;;;;8.18;5.78;;;;;;;31.86;24.62;99856.56;5075005;28;20040;-61
2023/06/25 04:25:14;;;;;;;7.47;5.78;;;;;;;31.98;24.71;99848.06;5083496;28;20036;-61
2023/06/25 04:27:39;;;;;;;6.75;5.82;;;;;;;32.01;24.30;99855.84;5095252;28;20031;-60
2023/06/25 04:30:05;;;;;;;8.93;6.03;;;;;;;31.83;24.73;99812.81;5094580;28;20115;-62
2023/06/25 04:32:32;;;;;;;9.25;6.40;;;;;;;32.12;24.77;99853.97;5094631;28;20077;-60
2023/06/25 04:34:58;;;;;;;7.82;6.60;;;;;;;32.29;24.74;99842.72;5075987;28;20039;-59
2023/06/25 04:37:24;;;;;;;9.23;6.90;;;;;;;32.56;23.97;99855.63;5095428;28;20036;-66
2023/06/25 04:39:49;;;;;;;7.07;6.18;;;;;;;32.83;23.74;99862.94;5095501;28;20028;-60
2023/06/25 04:42:15;;;;;;;7.10;6.35;;;;;;;33.01;23.82;99856.06;5094006;28;20469;-60
2023/06/25 04:44:40;;;;;;;7.97;6.30;;;;;;;33.37;22.88;99855.31;5094737;28;20025;-61
2023/06/25 04:47:06;;;;;;;7.05;6.35;;;;;;;34.02;21.88;99848.44;5086983;28;20430;-60
2023/06/25 04:49:31;;;;;;;6.80;6.15;;;;;;;34.67;21.44;99856.03;5074902;28;20029;-62
2023/06/25 04:51:57;;;;;;;6.72;6.07;;;;;;;35.32;21.25;99854.28;5074280;28;20514;-61
2023/06/25 04:54:22;;;;;;;8.52;5.85;;;;;;;35.96;20.40;99848.75;5075756;28;20024;-60
2023/06/25 04:56:48;;;;;;;7.13;6.25;;;;;;;36.68;19.44;99841.59;5074850;28;20447;-60
2023/06/25 04:59:13;;;;;;;8.65;5.93;;;;;;;37.40;18.90;99841.72;5074568;28;20112;-61
2023/06/25 05:01:39;;;;;;;6.35;5.65;;;;;;;37.57;18.15;99853.16;5074225;28;20036;-61
2023/06/25 05:04:04;;;;;;;5.85;5.25;;;;;;;37.90;18.13;99852.31;5073894;28;20021;-60
2023/06/25 05:06:30;;;;;;;8.85;5.97;;;;;;;38.45;17.03;99843.22;5090469;28;20032;-60
2023/06/25 05:08:56;;;;;;;6.30;5.70;;;;;;;39.26;16.61;99842.84;5092956;28;20081;-69
2023/06/25 05:11:22;;;;;;;6.38;5.75;;;;;;;40.03;16.01;99846.53;5076783;28;20097;-59
2023/06/25 05:13:48;;;;;;;7.50;5.75;;;;;;;40.48;15.44;99844.75;5094322;28;20036;-61
2023/06/25 05:16:14;;;;;;;5.95;5.45;;;;;;;40.57;14.96;99839.16;5094484;28;20038;-61
2023/06/25 05:18:41;;;;;;;6.03;5.50;;;;;;;40.68;14.80;99843.28;5094420;28;20416;-61
2023/06/25 05:21:07;;;;;;;6.47;5.85;;;;;;;40.86;15.05;99827.31;5094103;28;20028;-61
2023/06/25 05:23:44;;;;;;;5.70;5.25;;;;;;;41.49;15.10;99812.16;5089893;28;20556;-61
2023/06/25 05:26:10;;;;;;;5.40;4.90;;;;;;;41.79;13.61;99817.03;5094483;28;20030;-61
2023/06/25 05:28:37;;;;;;;4.35;4.03;;;;;;;42.30;12.85;99834.06;5094277;28;20027;-62
2023/06/25 05:31:02;;;;;;;4.32;4.00;;;;;;;42.60;12.25;99825.63;5093709;28;20035;-59
2023/06/25 05:33:28;;;;;;;4.53;3.95;;;;;;;42.97;11.98;99820.28;5092780;28;20110;-61
2023/06/25 05:35:53;;;;;;;4.10;3.72;;;;;;;42.82;11.87;99823.66;5094337;28;20103;-61
2023/06/25 05:38:19;;;;;;;4.20;3.90;;;;;;;42.72;11.80;99831.38;5091305;28;20054;-63
2023/06/25 05:40:44;;;;;;;4.07;3.85;;;;;;;42.76;11.84;99823.03;5073384;28;20355;-60
2023/06/25 05:43:10;;;;;;;4.60;3.90;;;;;;;42.68;11.36;99807.03;5075988;28;20028;-61
2023/06/25 05:45:35;;;;;;;4.70;4.25;;;;;;;42.86;11.55;99830.25;5093730;28;20169;-60
2023/06/25 05:48:01;;;;;;;5.15;4.65;;;;;;;43.12;11.59;99815.16;5093398;28;20035;-61
2023/06/25 05:50:26;;;;;;;5.07;4.35;;;;;;;43.31;11.69;99807.06;5093613;28;20079;-61
2023/06/25 05:52:52;;;;;;;5.18;4.78;;;;;;;43.60;11.48;99830.63;5093328;28;20024;-61
2023/06/25 05:55:17;;;;;;;5.75;4.28;;;;;;;43.04;11.71;99822.50;5093671;28;20032;-60
2023/06/25 05:57:44;;;;;;;4.95;4.47;;;;;;;42.89;12.08;99824.81;5092098;28;20047;-61
2023/06/25 06:00:11;;;;;;;5.22;4.40;;;;;;;42.66;11.85;99815.81;5072958;28;20067;-60
2023/06/25 06:02:36;;;;;;;4.35;4.00;;;;;;;42.96;11.10;99818.63;5072225;28;20343;-60
2023/06/25 06:05:02;;;;;;;5.60;4.18;;;;;;;42.83;10.42;99803.63;5073867;28;20031;-61
2023/06/25 06:07:30;;;;;;;4.30;3.90;;;;;;;43.11;10.44;99807.88;5055317;28;20036;-63
2023/06/25 06:09:55;;;;;;;4.93;4.15;;;;;;;43.70;9.87;99752.44;5072896;28;20035;-60
2023/06/25 06:12:21;;;;;;;4.20;3.90;;;;;;;44.42;9.92;99785.84;5072813;28;20152;-61
2023/06/25 06:14:46;;;;;;;5.22;4.47;;;;;;;45.06;9.49;99795.81;5093062;28;20035;-61
2023/06/25 06:17:12;;;;;;;6.00;4.60;;;;;;;45.06;9.92;99801.47;5093349;28;20034;-61
2023/06/25 06:19:37;;;;;;;5.82;4.22;;;;;;;45.28;9.66;99777.50;5091713;28;20040;-60
2023/06/25 06:22:03;;;;;;;5.82;4.13;;;;;;;46.01;9.12;99802.84;5092840;28;20063;-60
2023/06/25 06:24:29;;;;;;;4.57;4.18;;;;;;;46.73;8.75;99813.06;5093480;28;20455;-62
2023/06/25 06:26:54;;;;;;;4.35;3.95;;;;;;;47.34;8.18;99824.06;5074859;28;20035;-61
2023/06/25 06:29:20;;;;;;;5.63;4.00;;;;;;;48.28;7.63;99805.06;5089742;28;20965;-62
2023/06/25 06:31:46;;;;;;;4.53;4.07;;;;;;;48.78;7.30;99807.81;5092001;28;20031;-60
2023/06/25 06:34:11;;;;;;;7.60;4.20;;;;;;;49.01;6.95;99806.88;5092500;28;20020;-62
2023/06/25 06:36:37;;;;;;;5.32;3.83;;;;;;;48.87;7.05;99786.84;5093115;28;20028;-60
2023/06/25 06:39:02;;;;;;;4.68;4.10;;;;;;;49.26;6.90;99803.53;5089775;28;20031;-61
2023/06/25 06:41:28;;;;;;;8.13;3.90;;;;;;;49.34;7.10;99810.13;5075247;28;20369;-62
2023/06/25 06:44:10;;;;;;;4.72;4.10;;;;;;;49.52;6.73;99810.34;5093029;28;20047;-61
2023/06/25 06:46:36;;;;;;;5.50;4.20;;;;;;;50.01;6.22;99808.34;5091462;28;20362;-61
2023/06/25 06:49:01;;;;;;;4.68;4.28;;;;;;;50.50;6.31;99808.28;5092527;28;20036;-68
2023/06/25 06:51:27;;;;;;;5.55;4.00;;;;;;;49.68;5.79;99790.97;5090607;28;20038;-61
2023/06/25 06:53:52;;;;;;;4.15;3.78;;;;;;;49.72;5.89;99801.56;5091789;28;20104;-62
2023/06/25 06:56:18;;;;;;;5.82;4.32;;;;;;;50.14;5.87;99797.47;5092040;28;20028;-60
2023/06/25 06:58:43;;;;;;;5.07;4.28;;;;;;;50.86;5.40;99799.94;5090636;28;20020;-61
2023/06/25 07:01:09;;;;;;;4.97;4.05;;;;;;;51.06;5.39;99794.75;5092597;28;20081;-62
2023/06/25 07:03:34;;;;;;;6.07;4.70;;;;;;;50.93;5.01;99805.66;5092546;28;20122;-62
2023/06/25 07:06:00;;;;;;;4.38;4.00;;;;;;;51.14;5.13;99801.28;5074561;28;20399;-61
2023/06/25 07:08:25;;;;;;;4.78;4.38;;;;;;;51.72;5.07;99801.41;5091075;28;20110;-62
2023/06/25 07:10:51;;;;;;;4.80;4.43;;;;;;;52.18;4.47;99796.09;5079615;28;20514;-62
2023/06/25 07:13:16;;;;;;;5.50;4.40;;;;;;;52.52;4.87;99798.47;5073595;28;20033;-61
2023/06/25 07:15:42;;;;;;;5.40;4.88;;;;;;;52.87;4.46;99796.75;5071975;28;20389;-62
2023/06/25 07:18:07;;;;;;;11.13;5.00;;;;;;;53.12;4.55;99795.81;5071617;28;20168;-61
2023/06/25 07:20:33;;;;;;;4.63;4.30;;;;;;;53.13;4.19;99790.88;5072448;28;20064;-65
2023/06/25 07:22:58;;;;;;;4.95;4.55;;;;;;;52.95;4.29;99794.66;5072703;28;20051;-61
2023/06/25 07:25:24;;;;;;;5.15;4.85;;;;;;;52.93;3.81;99794.22;5071048;28;20038;-60
2023/06/25 07:27:49;;;;;;;7.07;4.90;;;;;;;52.99;4.21;99797.47;5071331;28;20137;-61
2023/06/25 07:30:15;;;;;;;7.65;5.78;;;;;;;52.80;4.42;99791.03;5073148;28;20028;-61
2023/06/25 07:32:40;;;;;;;6.50;4.95;;;;;;;53.02;4.45;99791.78;5071991;28;20033;-61
2023/06/25 07:35:06;;;;;;;5.18;4.78;;;;;;;52.46;4.26;99791.56;5070907;28;20046;-62
2023/06/25 07:37:32;;;;;;;5.10;4.80;;;;;;;52.29;4.13;99781.78;5072081;28;20673;-62
2023/06/25 07:39:57;;;;;;;5.35;4.55;;;;;;;52.55;3.61;99780.50;5071379;28;20032;-61
2023/06/25 07:42:23;;;;;;;4.85;4.53;;;;;;;52.92;3.29;99776.28;5070746;28;20024;-60
2023/06/25 07:44:48;;;;;;;5.13;4.82;;;;;;;52.96;3.31;99782.78;5070736;28;20025;-64
2023/06/25 07:47:15;;;;;;;5.55;4.75;;;;;;;52.66;4.15;99786.16;5088726;28;20032;-64
2023/06/25 07:49:40;;;;;;;5.43;4.93;;;;;;;52.83;3.61;99787.38;5096048;28;20089;-62
2023/06/25 07:52:06;;;;;;;5.10;4.80;;;;;;;53.52;3.89;99796.34;5093772;28;20365;-62
2023/06/25 07:54:31;;;;;;;6.07;5.45;;;;;;;53.56;3.30;99801.25;5095719;28;20028;-61
2023/06/25 07:56:57;;;;;;;6.22;5.55;;;;;;;53.79;3.56;99787.19;5095877;28;20055;-64
2023/06/25 07:59:22;;;;;;;6.30;5.70;;;;;;;53.87;3.13;99781.38;5095371;28;20156;-60
2023/06/25 08:01:48;;;;;;;6.28;5.78;;;;;;;53.17;3.58;99768.78;5092241;28;20036;-61
2023/06/25 08:04:13;;;;;;;5.60;5.10;;;;;;;52.62;3.97;99769.06;5092832;28;20028;-60
2023/06/25 08:06:39;;;;;;;6.25;5.75;;;;;;;52.55;4.06;99771.94;5095250;28;20024;-62
2023/06/25 08:09:04;;;;;;;5.60;5.10;;;;;;;51.79;3.93;99775.72;5093802;28;21381;-60
2023/06/25 08:11:30;;;;;;;5.40;4.95;;;;;;;50.09;4.68;99778.72;5077708;28;20101;-61
2023/06/25 08:13:56;;;;;;;5.57;4.57;;;;;;;48.64;5.17;99762.97;5075230;28;20027;-62
2023/06/25 08:16:22;;;;;;;4.85;4.55;;;;;;;48.35;5.34;99754.06;5075876;28;20422;-61
2023/06/25 08:18:49;;;;;;;4.88;4.47;;;;;;;48.05;5.71;99754.84;5074821;28;20055;-61
2023/06/25 08:21:14;;;;;;;4.70;4.30;;;;;;;47.58;6.01;99757.69;5075233;28;20466;-60
2023/06/25 08:23:40;;;;;;;5.00;4.50;;;;;;;46.92;6.41;99763.31;5074825;28;20032;-62
2023/06/25 08:26:06;;;;;;;4.45;4.03;;;;;;;45.31;6.50;99763.44;5074976;28;20500;-61
2023/06/25 08:28:32;;;;;;;4.00;3.70;;;;;;;42.49;8.27;99743.59;5075010;28;20040;-62
2023/06/25 08:30:57;;;;;;;5.00;4.10;;;;;;;39.69;9.96;99716.28;5074980;28;20036;-61
2023/06/25 08:33:23;;;;;;;6.70;4.57;;;;;;;37.53;11.97;99722.84;5074641;28;20024;-61
2023/06/25 08:35:48;;;;;;;6.32;5.07;;;;;;;35.86;13.39;99763.34;5074858;28;20054;-62
2023/06/25 08:38:17;;;;;;;5.82;5.13;;;;;;;34.15;14.72;99733.13;5076125;28;20029;-61
2023/06/25 08:40:47;;;;;;;8.27;5.10;;;;;;;33.03;15.67;99756.78;5074608;28;20465;-62
2023/06/25 08:43:12;;;;;;;5.90;5.30;;;;;;;32.05;16.96;99742.59;5074402;28;20110;-60
2023/06/25 08:45:38;;;;;;;7.40;5.97;;;;;;;31.33;17.93;99745.72;5074739;28;20423;-67
2023/06/25 08:48:10;;;;;;;5.75;5.25;;;;;;;30.69;17.06;99767.50;5073937;28;20028;-60
2023/06/25 08:50:39;;;;;;;4.93;4.53;;;;;;;29.89;17.72;99754.81;5093646;28;20031;-61
2023/06/25 08:53:05;;;;;;;6.00;5.50;;;;;;;29.06;18.41;99752.69;5093820;28;20031;-60
2023/06/25 08:55:31;;;;;;;6.05;5.35;;;;;;;28.40;19.69;99750.31;5094939;28;20027;-60
2023/06/25 08:57:56;;;;;;;7.68;6.05;;;;;;;27.79;21.11;99746.78;5094540;28;20324;-59
2023/06/25 09:00:22;;;;;;;8.38;6.18;;;;;;;27.46;21.75;99744.59;5088028;28;20031;-60
2023/06/25 09:02:47;;;;;;;10.35;6.10;;;;;;;27.22;23.09;99744.56;5074200;28;20488;-63
2023/06/25 09:05:22;;;;;;;7.43;6.68;;;;;;;27.07;22.57;99750.50;5073887;28;20024;-60
2023/06/25 09:07:48;;;;;;;7.13;6.40;;;;;;;27.02;23.02;99734.75;5074563;28;20064;-60
2023/06/25 09:10:13;;;;;;;7.57;6.53;;;;;;;26.98;24.36;99736.25;5074244;28;20068;-60
2023/06/25 09:12:39;;;;;;;7.28;6.50;;;;;;;26.77;23.51;99723.88;5074198;28;20406;-60
2023/06/25 09:15:08;;;;;;;10.48;6.80;;;;;;;27.01;23.37;99746.81;5074428;28;20058;-62
2023/06/25 09:17:33;;;;;;;8.38;6.80;;;;;;;26.98;23.28;99728.03;5073974;28;20032;-61
2023/06/25 09:20:08;;;;;;;7.95;6.50;;;;;;;27.23;22.81;99744.34;5089075;28;20041;-62
2023/06/25 09:22:47;;;;;;;8.43;6.50;;;;;;;26.91;23.45;99730.91;5091026;28;20430;-60
2023/06/25 09:25:13;;;;;;;7.63;6.82;;;;;;;26.67;23.70;99737.34;5094020;28;20114;-61
2023/06/25 09:27:38;;;;;;;9.32;6.97;;;;;;;26.39;24.23;99730.50;5094640;28;20035;-60
2023/06/25 09:30:04;;;;;;;9.38;7.32;;;;;;;26.24;24.45;99742.75;5093973;28;20036;-62
2023/06/25 09:32:30;;;;;;;9.30;6.75;;;;;;;26.12;25.09;99720.69;5093888;28;20551;-61
2023/06/25 09:34:56;;;;;;;8.88;7.57;;;;;;;26.14;25.33;99720.44;5094031;28;20024;-62
2023/06/25 09:37:21;;;;;;;9.38;6.80;;;;;;;26.31;25.00;99731.69;5093269;28;20031;-61
2023/06/25 09:39:47;;;;;;;9.18;7.05;;;;;;;26.53;24.76;99725.72;5093702;28;20085;-61
2023/06/25 09:42:14;;;;;;;7.95;7.20;;;;;;;26.70;24.53;99723.97;5092812;28;20051;-63
2023/06/25 09:44:40;;;;;;;10.75;7.05;;;;;;;26.88;24.63;99725.84;5092261;28;20031;-61
2023/06/25 09:47:10;;;;;;;7.95;6.93;;;;;;;27.02;24.46;99732.00;5093610;28;20390;-61
2023/06/25 09:49:36;;;;;;;11.27;6.57;;;;;;;27.01;24.51;99713.84;5093687;28;20078;-61
2023/06/25 09:52:09;;;;;;;7.95;7.20;;;;;;;27.12;24.37;99719.59;5092867;28;20060;-61
2023/06/25 09:54:38;;;;;;;8.93;6.40;;;;;;;26.97;24.38;99715.34;5092404;28;20320;-62
2023/06/25 09:57:09;;;;;;;11.15;6.22;;;;;;;27.02;24.71;99726.50;5092581;28;20150;-61
2023/06/25 09:59:35;;;;;;;10.68;6.30;;;;;;;26.96;23.92;99713.69;5086158;28;20029;-61
2023/06/25 10:02:02;;;;;;;8.40;6.30;;;;;;;26.76;23.98;99728.53;5082350;28;20109;-63
2023/06/25 10:04:31;;;;;;;7.53;6.35;;;;;;;26.67;23.94;99710.72;5092329;28;20097;-63
2023/06/25 10:06:57;;;;;;;6.97;6.20;;;;;;;26.58;22.92;99726.66;5093369;28;20340;-61
2023/06/25 10:09:23;;;;;;;6.53;5.80;;;;;;;26.44;23.54;99708.72;5092415;28;20350;-62
2023/06/25 10:11:54;;;;;;;7.43;6.05;;;;;;;26.21;23.87;99682.84;5092069;28;20041;-61
2023/06/25 10:14:21;;;;;;;7.40;6.00;;;;;;;26.25;23.05;99716.97;5093230;28;20370;-61
2023/06/25 10:16:56;;;;;;;8.45;5.95;;;;;;;26.31;23.10;99710.56;5091463;28;20024;-62
2023/06/25 10:19:24;;;;;;;9.70;6.55;;;;;;;26.27;23.56;99716.72;5090813;28;20463;-61
2023/06/25 10:22:12;;;;;;;6.00;5.32;;;;;;;26.45;23.23;99716.72;5093023;28;20138;-61
2023/06/25 10:24:42;;;;;;;8.43;6.15;;;;;;;26.23;24.15;99706.22;5092352;28;20372;-63
2023/06/25 10:27:29;;;;;;;6.13;5.55;;;;;;;26.43;23.53;99712.53;5092912;28;20020;-60
2023/06/25 10:29:56;;;;;;;7.97;6.10;;;;;;;26.34;23.96;99714.75;5092731;28;20032;-61
2023/06/25 10:32:27;;;;;;;9.25;6.75;;;;;;;26.11;23.18;99680.59;5092999;28;20110;-61
2023/06/25 10:35:00;;;;;;;6.63;5.63;;;;;;;26.01;24.31;99704.97;5091067;28;20521;-61
2023/06/25 10:37:29;;;;;;;7.78;6.18;;;;;;;25.92;23.86;99696.22;5092571;28;20324;-60
2023/06/25 10:40:06;;;;;;;6.38;5.78;;;;;;;26.13;23.81;99697.69;5090805;28;20102;-62
2023/06/25 10:42:32;;;;;;;8.35;6.40;;;;;;;26.29;24.50;99695.41;5093160;28;20055;-62
2023/06/25 10:44:59;;;;;;;7.95;7.15;;;;;;;26.41;24.33;99712.75;5093101;28;20083;-62
2023/06/25 10:47:25;;;;;;;7.22;6.53;;;;;;;26.17;24.22;99701.66;5090396;28;20050;-62
2023/06/25 10:49:51;;;;;;;7.72;6.47;;;;;;;26.12;24.83;99717.94;5090577;28;20027;-62
2023/06/25 10:52:17;;;;;;;7.30;5.50;;;;;;;26.11;24.85;99704.44;5092639;28;20088;-63
2023/06/25 10:54:43;;;;;;;7.78;6.22;;;;;;;26.19;25.04;99696.78;5093083;28;20038;-64
2023/06/25 10:57:13;;;;;;;7.40;6.70;;;;;;;26.22;24.47;99696.31;5092287;28;20032;-63
2023/06/25 10:59:39;;;;;;;9.43;5.95;;;;;;;26.36;24.36;99683.25;5084301;28;20036;-61
2023/06/25 11:02:10;;;;;;;8.32;6.05;;;;;;;26.60;23.38;99705.31;5078561;28;20454;-60
2023/06/25 11:04:35;;;;;;;10.10;6.38;;;;;;;26.63;23.92;99696.59;5092786;28;20039;-60
2023/06/25 11:07:01;;;;;;;9.98;6.97;;;;;;;26.57;24.02;99693.97;5092114;28;20024;-60
2023/06/25 11:09:28;;;;;;;7.68;6.88;;;;;;;26.55;24.29;99693.38;5091973;28;20028;-60
2023/06/25 11:11:53;;;;;;;9.52;6.13;;;;;;;26.58;24.79;99699.22;5092718;28;20058;-62
2023/06/25 11:14:19;;;;;;;7.47;6.78;;;;;;;26.53;24.60;99685.34;5091344;28;20055;-61
2023/06/25 11:16:46;;;;;;;8.00;6.75;;;;;;;26.42;25.23;99692.47;5085302;28;20122;-61
2023/06/25 11:19:12;;;;;;;11.50;7.00;;;;;;;26.35;25.36;99699.97;5071385;28;20044;-64
2023/06/25 11:21:38;;;;;;;8.18;7.35;;;;;;;26.25;25.50;99702.41;5094291;28;20051;-61
2023/06/25 11:24:07;;;;;;;8.18;7.03;;;;;;;26.32;25.42;99692.19;5096798;28;20412;-60
2023/06/25 11:26:43;;;;;;;8.77;7.00;;;;;;;26.46;24.65;99693.69;5095523;28;20055;-61
2023/06/25 11:29:10;;;;;;;7.85;7.05;;;;;;;26.40;25.28;99691.88;5096079;28;20035;-61